Skip Navigation Links
NOAA logo - Click to go to the NOAA homepage
NOAA's National Weather Service
Alaska Aviation Weather Unit
  NWS logo - Click to go to the NWS homepage
Left Navbar Graphic     09 AKDT = 17 GMT

   
NOAA is celebrating 200 years of science, service, and stewardship. Visit the NOAA 200th celebration Web site to learn more.
USA.gov is the U.S. Government's official Web portal to all Federal, state and local government Web resources and services.
Facebook
NWS on Facebook

Important Change Regarding the AAWU Web Presence

 

Over the last several months, the AAWU has been working to navigate its webpages to a nationally supported server. Security, as well as other needs, have necessitated the change.  In the process, we have made an effort to enhance the functionality of our website, as well as some of our products. As of June 20, 2017, aawu.arh.noaa.gov will be discontinued. The new AAWU web address is weather.gov/aawu. It is now live and will run in-parallel with the old site until it is discontinued. Please send any feedback or questions regarding the new webpages to nws.ar.aawu.webauthors@noaa.gov.  Thank you for your patience during this time of transition.
AAWU Home :: Display TAF Add Bookmark
METAR PAIK 231101Z AUTO 36003KT 10SM CLR 06/M02 A2971 RMK AO2 SLP102
     T00611022=

METAR PAIK 231201Z AUTO 27005KT 10SM FEW120 06/M02 A2972 RMK AO2 SLP105
     T00611022 10139 20044 52001=

METAR PAIK 231301Z AUTO 19005KT 10SM BKN110 06/M01 A2972 RMK AO2 SLP105
     T00611006=

METAR PAIK 231401Z AUTO 21007KT 10SM OVC090 06/M01 A2973 RMK AO2 SLP108
     T00561006=

METAR PAIK 231501Z AUTO 21010G15KT 10SM OVC075 04/M02 A2974 RMK AO2
     SLP109 T00441022 52005=

METAR PAIK 231601Z AUTO 21008KT 10SM OVC060 04/M02 A2975 RMK AO2 SLP116
     T00441022=


NOAA's National Weather Service
Alaska Aviation Weather Unit
6930 Sand Lake Road
Anchorage, AK 99502-1845
Disclaimer
Credits
Glossary
Privacy Policy
About Us
Career Opportunities
Contact AAWU Internet Services Site last modified: April, 17th 2012